Time;durP1;ratioP1;P1;durP2;ratioP2;P2;SDS_P1;SDS_P2;PMS_P1;PMS_P2;Temp;Humidity;BMP_temperature;BMP_pressure;BME280_temperature;BME280_humidity;BME280_pressure;Samples;Min_cycle;Max_cycle;Signal;HPM_P1;HPM_P2
2023/05/01 00:00:08;;;;;;;3.67;2.47;;;8.90;99.90;;;;;;5021594;28;20178;-69
2023/05/01 00:02:34;;;;;;;4.60;2.57;;;8.80;99.90;;;;;;5019773;28;20477;-69
2023/05/01 00:05:01;;;;;;;7.23;2.73;;;8.70;99.90;;;;;;5026298;28;20436;-68
2023/05/01 00:07:30;;;;;;;5.70;3.20;;;8.70;99.90;;;;;;5010941;28;20425;-69
2023/05/01 00:09:56;;;;;;;4.80;2.63;;;8.70;99.90;;;;;;5017570;28;20426;-69
2023/05/01 00:12:22;;;;;;;2.83;1.80;;;8.70;99.90;;;;;;5010314;28;20437;-69
2023/05/01 00:14:48;;;;;;;6.73;3.17;;;8.70;99.90;;;;;;5008312;28;20504;-69
2023/05/01 00:17:13;;;;;;;8.40;3.20;;;8.70;99.90;;;;;;5013665;28;20780;-68
2023/05/01 00:19:39;;;;;;;4.10;2.50;;;8.70;99.90;;;;;;5013026;28;20277;-69
2023/05/01 00:22:05;;;;;;;3.70;2.43;;;8.70;99.90;;;;;;5009751;28;20233;-69
2023/05/01 00:24:31;;;;;;;5.93;2.80;;;8.70;99.90;;;;;;5028094;23;20255;-67
2023/05/01 00:26:57;;;;;;;5.37;2.53;;;8.70;99.90;;;;;;5038704;28;20451;-69
2023/05/01 00:29:23;;;;;;;3.20;2.00;;;8.70;99.90;;;;;;5030297;28;20572;-69
2023/05/01 00:31:48;;;;;;;3.80;2.43;;;8.80;99.90;;;;;;5035412;28;20182;-68
2023/05/01 00:34:14;;;;;;;5.07;2.03;;;8.80;99.90;;;;;;5032539;28;20564;-69
2023/05/01 00:36:40;;;;;;;9.67;2.50;;;8.70;99.90;;;;;;5045957;28;20677;-69
2023/05/01 00:39:08;;;;;;;3.00;2.13;;;8.80;99.90;;;;;;5052892;28;20228;-69
2023/05/01 00:41:35;;;;;;;7.03;3.10;;;8.80;99.90;;;;;;5046540;28;20218;-69
2023/05/01 00:44:00;;;;;;;3.27;2.20;;;8.90;99.90;;;;;;5052297;28;20432;-68
2023/05/01 00:46:28;;;;;;;5.60;2.63;;;8.90;99.90;;;;;;5039861;28;20475;-68
2023/05/01 00:48:55;;;;;;;5.40;2.73;;;8.90;99.90;;;;;;5042089;28;20179;-69
2023/05/01 00:51:21;;;;;;;8.43;3.20;;;9.00;99.90;;;;;;5033082;28;20475;-68
2023/05/01 00:53:47;;;;;;;4.80;3.33;;;9.00;99.90;;;;;;5034254;28;20437;-69
2023/05/01 00:56:14;;;;;;;5.40;3.10;;;9.00;99.90;;;;;;5038146;28;20531;-69
2023/05/01 00:58:40;;;;;;;7.30;2.53;;;9.10;99.90;;;;;;5032727;28;20205;-69
2023/05/01 01:01:08;;;;;;;4.50;2.60;;;9.10;99.90;;;;;;5032226;28;20788;-69
2023/05/01 01:03:34;;;;;;;7.30;3.43;;;9.10;99.90;;;;;;5029060;28;20472;-69
2023/05/01 01:06:30;;;;;;;7.67;3.20;;;9.10;99.90;;;;;;5025864;28;20576;-69
2023/05/01 01:09:37;;;;;;;5.17;2.87;;;9.10;99.90;;;;;;4994325;28;20217;-69
2023/05/01 01:12:26;;;;;;;5.53;3.07;;;9.20;99.90;;;;;;4950122;29;20500;-69
2023/05/01 01:15:14;;;;;;;5.30;3.10;;;9.20;99.90;;;;;;4951687;29;20464;-69
2023/05/01 01:17:49;;;;;;;7.23;2.60;;;9.30;99.90;;;;;;5015771;28;20445;-69
2023/05/01 01:20:48;;;;;;;7.60;2.70;;;9.30;99.90;;;;;;5037203;28;20534;-69
2023/05/01 01:23:32;;;;;;;5.90;3.13;;;9.30;99.90;;;;;;5048086;28;20953;-69
2023/05/01 01:26:28;;;;;;;5.30;2.80;;;9.30;99.90;;;;;;5032035;28;20437;-69
2023/05/01 01:29:38;;;;;;;6.57;2.90;;;9.30;99.90;;;;;;5041981;28;20419;-67
2023/05/01 01:32:15;;;;;;;4.27;2.50;;;9.30;99.90;;;;;;5030387;28;20415;-67
2023/05/01 01:34:52;;;;;;;4.17;2.93;;;9.30;99.90;;;;;;5031834;28;20428;-66
2023/05/01 01:37:35;;;;;;;4.73;2.80;;;9.30;99.90;;;;;;5032064;28;20784;-67
2023/05/01 01:40:09;;;;;;;4.73;2.90;;;9.20;99.90;;;;;;5029391;28;20474;-67
2023/05/01 01:42:48;;;;;;;9.33;3.27;;;9.20;99.90;;;;;;5045897;28;20583;-67
2023/05/01 01:45:29;;;;;;;4.80;2.97;;;9.20;99.90;;;;;;5052303;28;20415;-67
2023/05/01 01:47:56;;;;;;;9.40;2.97;;;9.20;99.90;;;;;;5052169;28;20423;-67
2023/05/01 01:50:25;;;;;;;4.07;2.90;;;9.20;99.90;;;;;;5051587;28;20429;-67
2023/05/01 01:52:53;;;;;;;6.83;3.37;;;9.10;99.90;;;;;;5051375;28;20823;-67
2023/05/01 01:55:24;;;;;;;4.70;2.77;;;9.20;99.90;;;;;;5051823;28;20428;-67
2023/05/01 01:57:51;;;;;;;3.17;2.63;;;9.10;99.90;;;;;;5049510;28;20504;-67
2023/05/01 02:00:17;;;;;;;4.50;3.30;;;9.10;99.90;;;;;;5031489;28;20442;-67
2023/05/01 02:02:44;;;;;;;5.97;3.30;;;9.10;99.90;;;;;;5030537;28;20506;-67
2023/05/01 02:05:14;;;;;;;5.20;2.83;;;9.20;99.90;;;;;;5045773;28;20438;-67
2023/05/01 02:07:42;;;;;;;8.10;3.77;;;9.10;99.90;;;;;;5022545;28;20421;-67
2023/05/01 02:10:12;;;;;;;8.67;3.10;;;9.20;99.90;;;;;;5027455;28;20452;-67
2023/05/01 02:12:44;;;;;;;5.33;2.87;;;9.10;99.90;;;;;;5030637;28;20504;-67
2023/05/01 02:15:11;;;;;;;5.20;2.97;;;9.10;99.90;;;;;;5025812;28;21052;-67
2023/05/01 02:17:38;;;;;;;12.10;3.77;;;9.10;99.90;;;;;;5028201;28;20460;-67
2023/05/01 02:20:05;;;;;;;4.97;2.73;;;9.20;99.90;;;;;;5031932;28;20448;-67
2023/05/01 02:22:31;;;;;;;4.27;3.10;;;9.10;99.90;;;;;;5040939;28;20466;-67
2023/05/01 02:24:58;;;;;;;5.53;3.67;;;9.10;99.90;;;;;;5037502;28;20436;-67
2023/05/01 02:27:34;;;;;;;5.60;3.63;;;9.10;99.90;;;;;;5050995;28;20562;-67
2023/05/01 02:30:00;;;;;;;5.10;3.20;;;9.10;99.90;;;;;;5045200;28;20428;-67
2023/05/01 02:32:27;;;;;;;4.63;3.23;;;9.10;99.90;;;;;;5038889;28;20412;-67
2023/05/01 02:34:53;;;;;;;6.77;3.80;;;9.00;99.90;;;;;;5035887;28;20216;-67
2023/05/01 02:37:19;;;;;;;7.57;3.40;;;9.10;99.90;;;;;;5045280;28;20459;-67
2023/05/01 02:39:45;;;;;;;5.57;3.33;;;9.10;99.90;;;;;;5050363;28;20182;-67
2023/05/01 02:42:14;;;;;;;5.00;3.47;;;9.10;99.90;;;;;;5044924;28;20453;-67
2023/05/01 02:44:47;;;;;;;5.73;3.47;;;9.10;99.90;;;;;;5050153;28;20312;-67
2023/05/01 02:47:17;;;;;;;6.43;3.43;;;9.00;99.90;;;;;;5050484;28;20947;-67
2023/05/01 02:49:46;;;;;;;9.50;3.00;;;9.10;99.90;;;;;;5042605;28;20471;-67
2023/05/01 02:52:13;;;;;;;5.97;3.20;;;9.20;99.90;;;;;;5044443;28;20420;-67
2023/05/01 02:54:39;;;;;;;4.97;3.43;;;9.10;99.90;;;;;;5050313;28;20527;-67
2023/05/01 02:57:05;;;;;;;14.20;4.03;;;9.20;99.90;;;;;;5036835;28;20517;-67
2023/05/01 02:59:31;;;;;;;4.80;3.03;;;9.10;99.90;;;;;;5034687;28;20320;-67
2023/05/01 03:01:57;;;;;;;5.33;3.23;;;9.10;99.90;;;;;;5032725;28;20210;-67
2023/05/01 03:04:22;;;;;;;5.50;3.23;;;9.10;99.90;;;;;;5037084;28;20475;-67
2023/05/01 03:06:48;;;;;;;6.57;3.60;;;9.00;99.90;;;;;;5028093;28;20239;-67
2023/05/01 03:09:14;;;;;;;8.80;3.97;;;9.00;99.90;;;;;;5025777;28;20186;-67
2023/05/01 03:11:39;;;;;;;5.70;3.30;;;9.10;99.90;;;;;;5028070;28;20193;-67
2023/05/01 03:14:05;;;;;;;5.30;3.83;;;9.10;99.90;;;;;;5022235;28;20687;-67
2023/05/01 03:16:30;;;;;;;7.77;3.70;;;9.10;99.90;;;;;;5010548;28;20224;-67
2023/05/01 03:18:56;;;;;;;9.67;4.10;;;9.10;99.90;;;;;;5001235;28;20237;-67
2023/05/01 03:21:22;;;;;;;6.40;3.90;;;9.10;99.90;;;;;;5016501;28;20202;-67
2023/05/01 03:23:48;;;;;;;4.30;2.57;;;9.10;99.90;;;;;;5029735;28;20182;-67
2023/05/01 03:26:13;;;;;;;7.53;3.73;;;9.00;99.90;;;;;;5030118;28;20194;-67
2023/05/01 03:28:39;;;;;;;5.37;3.40;;;9.00;99.90;;;;;;5022317;28;20190;-67
2023/05/01 03:31:05;;;;;;;7.57;3.90;;;9.00;99.90;;;;;;5023702;28;20197;-67
2023/05/01 03:33:31;;;;;;;8.10;3.90;;;9.00;99.90;;;;;;5022166;28;20186;-67
2023/05/01 03:36:02;;;;;;;6.63;3.43;;;9.00;99.90;;;;;;5021018;28;20901;-67
2023/05/01 03:38:29;;;;;;;6.50;3.57;;;9.00;99.90;;;;;;5016686;28;20187;-67
2023/05/01 03:40:55;;;;;;;6.70;3.80;;;9.00;99.90;;;;;;5023451;28;20452;-67
2023/05/01 03:43:21;;;;;;;5.90;3.63;;;9.00;99.90;;;;;;5025391;28;20503;-67
2023/05/01 03:45:46;;;;;;;6.30;3.17;;;9.00;99.90;;;;;;5033801;28;20202;-67
2023/05/01 03:48:13;;;;;;;4.00;2.70;;;9.00;99.90;;;;;;5025653;28;20567;-67
2023/05/01 03:50:38;;;;;;;7.17;3.50;;;9.10;99.90;;;;;;5026286;28;20182;-67
2023/05/01 03:53:04;;;;;;;9.77;4.10;;;9.10;99.90;;;;;;5022140;28;20421;-67
2023/05/01 03:55:29;;;;;;;6.23;3.43;;;9.10;99.90;;;;;;5032258;28;20213;-67
2023/05/01 03:57:55;;;;;;;12.50;4.30;;;9.10;99.90;;;;;;5022493;28;20197;-67
2023/05/01 04:00:21;;;;;;;5.73;3.33;;;9.10;99.90;;;;;;5033510;28;20195;-67
2023/05/01 04:02:47;;;;;;;5.73;3.60;;;9.10;99.90;;;;;;5024808;28;20211;-67
2023/05/01 04:05:13;;;;;;;5.80;3.90;;;9.10;99.90;;;;;;5028332;28;20500;-67
2023/05/01 04:07:39;;;;;;;6.87;4.10;;;9.10;99.90;;;;;;5032934;28;20690;-67
2023/05/01 04:10:07;;;;;;;11.63;4.90;;;9.10;99.90;;;;;;5020003;28;20906;-67
2023/05/01 04:12:32;;;;;;;14.23;3.90;;;9.10;99.90;;;;;;5032036;28;20425;-67
2023/05/01 04:14:58;;;;;;;5.73;3.40;;;9.10;99.90;;;;;;5020203;28;20430;-67
2023/05/01 04:17:24;;;;;;;9.37;3.83;;;9.10;99.90;;;;;;5033482;28;20273;-67
2023/05/01 04:19:50;;;;;;;7.33;4.03;;;9.10;99.90;;;;;;5019385;28;20183;-67
2023/05/01 04:22:15;;;;;;;9.87;3.90;;;9.10;99.90;;;;;;5023316;28;20487;-67
2023/05/01 04:24:41;;;;;;;6.63;3.70;;;9.10;99.90;;;;;;5029246;28;20562;-67
2023/05/01 04:27:07;;;;;;;4.60;3.13;;;9.20;99.90;;;;;;5024243;28;20289;-67
2023/05/01 04:29:32;;;;;;;5.97;2.77;;;9.10;99.90;;;;;;5026502;28;20193;-67
2023/05/01 04:31:58;;;;;;;6.73;3.67;;;9.20;99.90;;;;;;5021650;28;20269;-67
2023/05/01 04:34:24;;;;;;;6.87;3.90;;;9.20;99.90;;;;;;5030431;28;20619;-68
2023/05/01 04:36:50;;;;;;;8.13;4.00;;;9.20;99.90;;;;;;5027852;28;20273;-69
2023/05/01 04:39:16;;;;;;;10.07;4.30;;;9.20;99.90;;;;;;5031297;28;20754;-69
2023/05/01 04:41:41;;;;;;;6.90;4.23;;;9.20;99.90;;;;;;5013865;28;20468;-69
2023/05/01 04:44:07;;;;;;;6.83;3.50;;;9.20;99.90;;;;;;5032770;28;20258;-69
2023/05/01 04:46:33;;;;;;;8.37;3.73;;;9.20;99.90;;;;;;5024802;28;20184;-69
2023/05/01 04:48:58;;;;;;;9.60;3.20;;;9.20;99.90;;;;;;5027386;28;20746;-69
2023/05/01 04:51:24;;;;;;;9.63;5.13;;;9.20;99.90;;;;;;5032692;28;20178;-69
2023/05/01 04:53:49;;;;;;;6.27;3.90;;;9.10;99.90;;;;;;5018687;28;20207;-69
2023/05/01 04:56:15;;;;;;;4.77;3.40;;;9.20;99.90;;;;;;5032783;28;20203;-69
2023/05/01 04:58:41;;;;;;;7.40;3.80;;;9.10;99.90;;;;;;5032433;28;20244;-69
2023/05/01 05:01:06;;;;;;;7.10;3.83;;;9.00;99.90;;;;;;5032103;28;20674;-69
2023/05/01 05:03:32;;;;;;;5.47;3.13;;;9.10;99.90;;;;;;5018484;28;20222;-69
2023/05/01 05:05:57;;;;;;;5.63;3.33;;;9.10;99.90;;;;;;5024103;28;20190;-69
2023/05/01 05:08:23;;;;;;;5.20;3.33;;;9.10;99.90;;;;;;5027094;28;20248;-69
2023/05/01 05:10:49;;;;;;;7.00;4.00;;;9.10;99.90;;;;;;5006890;28;20219;-69
2023/05/01 05:13:14;;;;;;;6.30;4.60;;;9.10;99.90;;;;;;5025721;28;20183;-68
2023/05/01 05:15:40;;;;;;;8.40;4.20;;;9.10;99.90;;;;;;5032504;28;20205;-69
2023/05/01 05:18:05;;;;;;;12.13;4.77;;;9.10;99.90;;;;;;5018746;28;20175;-69
2023/05/01 05:20:31;;;;;;;9.27;4.67;;;9.20;99.90;;;;;;5031929;28;20218;-69
2023/05/01 05:22:56;;;;;;;7.10;3.80;;;9.20;99.90;;;;;;5017994;28;20215;-69
2023/05/01 05:25:23;;;;;;;6.50;4.10;;;9.20;99.90;;;;;;5032056;28;20799;-69
2023/05/01 05:27:48;;;;;;;8.90;5.30;;;9.20;99.90;;;;;;5030603;28;20179;-69
2023/05/01 05:30:14;;;;;;;5.80;4.00;;;9.30;99.90;;;;;;5019640;28;20746;-69
2023/05/01 05:32:40;;;;;;;8.73;4.40;;;9.30;99.90;;;;;;5031650;28;20174;-69
2023/05/01 05:35:06;;;;;;;6.83;3.53;;;9.40;99.90;;;;;;5031813;28;20424;-69
2023/05/01 05:37:32;;;;;;;5.10;3.03;;;9.30;99.90;;;;;;5031747;28;20277;-69
2023/05/01 05:39:57;;;;;;;8.20;4.00;;;9.30;99.90;;;;;;5030913;28;20512;-69
2023/05/01 05:42:23;;;;;;;6.40;3.60;;;9.30;99.90;;;;;;5018058;28;20223;-69
2023/05/01 05:44:48;;;;;;;5.40;3.27;;;9.30;99.90;;;;;;5031149;28;20210;-69
2023/05/01 05:47:14;;;;;;;5.60;3.50;;;9.30;99.90;;;;;;5018624;28;20545;-69
2023/05/01 05:49:40;;;;;;;5.73;3.63;;;9.30;99.90;;;;;;5030300;28;20643;-69
2023/05/01 05:52:05;;;;;;;6.83;3.00;;;9.40;99.90;;;;;;5017608;28;20183;-69
2023/05/01 05:54:31;;;;;;;7.40;3.40;;;9.40;99.90;;;;;;5028464;28;20635;-69
2023/05/01 05:56:56;;;;;;;7.77;4.13;;;9.40;99.90;;;;;;5019258;28;20179;-69
2023/05/01 05:59:23;;;;;;;6.70;3.90;;;9.40;99.90;;;;;;5032079;28;20226;-69
2023/05/01 06:01:49;;;;;;;6.50;3.80;;;9.40;99.90;;;;;;5030245;28;20493;-69
2023/05/01 06:04:15;;;;;;;4.73;3.03;;;9.50;99.90;;;;;;5019409;28;20193;-69
2023/05/01 06:06:40;;;;;;;7.30;3.77;;;9.60;99.90;;;;;;5018006;28;20211;-69
2023/05/01 06:09:10;;;;;;;6.20;3.97;;;9.70;99.90;;;;;;5024364;28;20988;-69
2023/05/01 06:11:36;;;;;;;4.37;3.27;;;9.70;99.90;;;;;;5024997;28;20181;-69
2023/05/01 06:14:02;;;;;;;13.13;3.80;;;9.80;99.90;;;;;;5020270;28;20429;-69
2023/05/01 06:16:28;;;;;;;6.50;3.70;;;9.80;99.90;;;;;;5018559;28;20496;-69
2023/05/01 06:18:53;;;;;;;8.87;4.00;;;9.80;99.90;;;;;;5023869;28;20449;-69
2023/05/01 06:21:19;;;;;;;7.40;3.90;;;9.70;99.90;;;;;;5025601;28;20182;-69
2023/05/01 06:23:45;;;;;;;9.83;3.63;;;9.90;99.90;;;;;;5019172;28;20280;-69
2023/05/01 06:26:11;;;;;;;5.90;3.53;;;9.90;99.90;;;;;;5018367;28;20198;-69
2023/05/01 06:28:37;;;;;;;5.87;3.50;;;9.90;99.90;;;;;;5024081;28;20249;-69
2023/05/01 06:31:03;;;;;;;6.70;3.50;;;10.00;99.90;;;;;;5024872;28;20461;-69
2023/05/01 06:33:28;;;;;;;4.43;3.40;;;10.00;99.90;;;;;;5022900;28;20264;-69
2023/05/01 06:35:54;;;;;;;6.37;3.90;;;10.00;99.90;;;;;;5022459;28;20190;-68
2023/05/01 06:38:20;;;;;;;7.07;4.07;;;10.00;99.90;;;;;;5017659;28;20187;-69
2023/05/01 06:40:48;;;;;;;4.93;2.63;;;10.00;99.90;;;;;;5024354;28;20424;-69
2023/05/01 06:43:13;;;;;;;4.63;2.70;;;10.00;99.90;;;;;;5019204;28;20206;-69
2023/05/01 06:45:40;;;;;;;13.50;4.57;;;10.00;99.90;;;;;;5017463;28;20974;-68
2023/05/01 06:48:06;;;;;;;5.93;3.47;;;10.10;99.90;;;;;;5031507;28;20178;-69
2023/05/01 06:50:32;;;;;;;5.83;3.70;;;10.10;99.90;;;;;;5017661;28;20418;-68
2023/05/01 06:52:59;;;;;;;7.50;3.30;;;10.10;99.90;;;;;;5023193;28;20578;-69
2023/05/01 06:55:25;;;;;;;6.53;3.97;;;10.20;99.90;;;;;;5025619;28;20178;-68
2023/05/01 06:57:51;;;;;;;6.97;3.27;;;10.20;99.90;;;;;;5031426;28;20441;-68
2023/05/01 07:00:17;;;;;;;7.57;4.20;;;10.30;99.90;;;;;;5030807;28;20527;-68
2023/05/01 07:02:44;;;;;;;6.07;3.60;;;10.30;99.90;;;;;;5022715;28;20206;-68
2023/05/01 07:05:10;;;;;;;8.93;4.03;;;10.40;99.90;;;;;;5024485;28;20451;-68
2023/05/01 07:07:35;;;;;;;5.77;3.93;;;10.40;99.90;;;;;;5029100;28;20424;-68
2023/05/01 07:10:01;;;;;;;5.20;3.67;;;10.50;99.90;;;;;;5026741;28;20186;-69
2023/05/01 07:12:28;;;;;;;8.10;4.03;;;10.40;99.90;;;;;;5029955;28;20189;-68
2023/05/01 07:14:55;;;;;;;8.90;4.80;;;10.40;99.90;;;;;;5017002;28;20249;-69
2023/05/01 07:17:21;;;;;;;6.40;3.80;;;10.60;99.90;;;;;;5024036;28;20417;-68
2023/05/01 07:19:47;;;;;;;8.10;3.90;;;10.50;99.90;;;;;;5029983;28;20924;-68
2023/05/01 07:22:12;;;;;;;5.20;2.93;;;10.60;99.90;;;;;;5034205;28;20229;-68
2023/05/01 07:24:38;;;;;;;6.90;3.40;;;10.70;99.90;;;;;;5032471;28;20190;-68
2023/05/01 07:27:04;;;;;;;6.33;4.03;;;10.70;99.90;;;;;;5023776;28;20186;-69
2023/05/01 07:29:29;;;;;;;8.97;4.93;;;10.80;99.90;;;;;;5032711;28;20190;-69
2023/05/01 07:31:55;;;;;;;7.07;3.57;;;10.80;99.90;;;;;;5023532;28;20718;-68
2023/05/01 07:34:20;;;;;;;6.50;3.47;;;10.80;99.90;;;;;;5032055;28;20213;-68
2023/05/01 07:36:46;;;;;;;6.80;3.43;;;10.80;99.90;;;;;;5021868;28;20352;-68
2023/05/01 07:39:13;;;;;;;6.37;3.83;;;10.80;99.90;;;;;;5019523;28;20194;-68
2023/05/01 07:41:39;;;;;;;8.80;3.70;;;10.90;99.90;;;;;;5022840;28;20186;-68
2023/05/01 07:44:04;;;;;;;7.33;4.07;;;10.80;99.90;;;;;;5021253;28;21414;-68
2023/05/01 07:46:30;;;;;;;7.87;3.07;;;10.90;99.90;;;;;;5026214;28;20884;-68
2023/05/01 07:48:56;;;;;;;8.10;3.83;;;10.80;99.90;;;;;;5027649;28;20189;-68
2023/05/01 07:51:22;;;;;;;7.10;3.73;;;10.90;99.90;;;;;;5023612;28;20425;-68
2023/05/01 07:53:48;;;;;;;6.80;3.50;;;11.00;99.90;;;;;;5020811;28;20542;-68
2023/05/01 07:56:15;;;;;;;6.27;3.90;;;11.00;99.90;;;;;;5025617;28;20418;-68
2023/05/01 07:58:41;;;;;;;8.53;3.70;;;11.00;99.90;;;;;;5029575;28;20503;-68
2023/05/01 08:01:08;;;;;;;5.37;2.97;;;11.10;99.90;;;;;;5033904;28;20421;-68
2023/05/01 08:03:33;;;;;;;8.03;4.47;;;11.10;99.90;;;;;;5020590;28;20466;-68
2023/05/01 08:05:59;;;;;;;6.90;3.23;;;11.30;99.90;;;;;;5030711;28;20420;-68
2023/05/01 08:08:25;;;;;;;3.47;2.53;;;11.40;99.90;;;;;;5031561;28;20175;-68
2023/05/01 08:10:51;;;;;;;7.00;3.33;;;11.50;99.90;;;;;;5022525;28;20266;-68
2023/05/01 08:13:17;;;;;;;5.80;3.20;;;11.60;99.90;;;;;;5031295;28;20561;-69
2023/05/01 08:15:44;;;;;;;7.10;4.27;;;11.80;99.90;;;;;;5021952;28;20497;-69
2023/05/01 08:18:10;;;;;;;6.10;3.40;;;11.80;99.90;;;;;;5033337;28;20217;-69
2023/05/01 08:20:35;;;;;;;12.60;3.47;;;12.10;99.90;;;;;;5024882;28;20460;-69
2023/05/01 08:23:01;;;;;;;6.73;4.20;;;12.10;99.90;;;;;;5027832;28;20216;-69
2023/05/01 08:25:27;;;;;;;6.27;3.00;;;12.10;99.90;;;;;;5024232;28;20210;-69
2023/05/01 08:27:52;;;;;;;7.20;3.93;;;12.20;99.90;;;;;;5029981;28;20191;-69
2023/05/01 08:30:18;;;;;;;5.50;3.03;;;12.50;99.90;;;;;;5021282;28;20546;-69
2023/05/01 08:32:44;;;;;;;6.03;3.17;;;12.70;99.90;;;;;;5023503;28;20278;-69
2023/05/01 08:35:10;;;;;;;6.37;3.33;;;12.90;99.90;;;;;;5026264;28;20632;-69
2023/05/01 08:37:36;;;;;;;5.50;3.50;;;13.00;99.90;;;;;;5031849;28;20190;-69
2023/05/01 08:40:07;;;;;;;8.30;3.53;;;13.40;99.90;;;;;;5021260;28;20466;-69
2023/05/01 08:42:37;;;;;;;7.40;2.87;;;13.60;99.90;;;;;;5031107;28;20348;-69
2023/05/01 08:45:06;;;;;;;4.60;2.67;;;14.00;99.90;;;;;;5032854;28;20870;-69
2023/05/01 08:47:37;;;;;;;6.53;2.80;;;14.00;99.90;;;;;;5030566;28;20429;-69
2023/05/01 08:50:03;;;;;;;5.73;3.90;;;13.80;99.90;;;;;;5022276;28;20491;-69
2023/05/01 08:52:30;;;;;;;5.20;3.40;;;13.80;99.90;;;;;;5024720;28;20902;-69
2023/05/01 08:54:58;;;;;;;6.33;3.03;;;13.80;99.90;;;;;;5023560;28;20429;-69
2023/05/01 08:57:26;;;;;;;5.43;3.33;;;13.90;99.90;;;;;;5018716;28;20425;-69
2023/05/01 08:59:55;;;;;;;4.03;2.60;;;14.00;99.90;;;;;;5031108;28;20807;-69
2023/05/01 09:02:23;;;;;;;5.63;2.87;;;14.10;99.90;;;;;;5009057;28;20466;-69
2023/05/01 09:04:51;;;;;;;9.93;4.17;;;14.00;99.90;;;;;;5024279;28;20417;-69
2023/05/01 09:07:16;;;;;;;5.90;2.80;;;14.10;99.90;;;;;;5018847;28;20428;-69
2023/05/01 09:09:42;;;;;;;4.80;2.60;;;14.20;99.90;;;;;;5032119;28;20435;-69
2023/05/01 09:12:14;;;;;;;4.13;2.47;;;14.40;99.90;;;;;;5027235;28;20183;-69
2023/05/01 09:14:40;;;;;;;4.53;2.60;;;14.40;99.90;;;;;;5039350;28;20719;-69
2023/05/01 09:17:05;;;;;;;3.93;2.20;;;14.60;99.90;;;;;;5034027;28;20437;-69
2023/05/01 09:19:31;;;;;;;11.10;2.60;;;14.60;99.90;;;;;;5030581;28;20194;-69
2023/05/01 09:21:57;;;;;;;6.40;2.83;;;14.70;99.90;;;;;;5034729;28;20198;-70
2023/05/01 09:24:26;;;;;;;2.77;2.10;;;15.00;99.90;;;;;;5032446;28;20560;-69
2023/05/01 09:26:52;;;;;;;3.83;2.10;;;15.20;99.90;;;;;;5043137;28;20236;-69
2023/05/01 09:29:46;;;;;;;3.60;2.13;;;15.10;99.70;;;;;;5051768;28;20786;-69
2023/05/01 09:32:23;;;;;;;5.70;2.73;;;15.10;99.90;;;;;;5019827;28;20202;-69
2023/05/01 09:34:50;;;;;;;4.00;2.00;;;15.10;99.90;;;;;;5031257;28;20421;-69
2023/05/01 09:37:28;;;;;;;4.77;2.97;;;14.90;99.90;;;;;;5043604;28;20550;-69
2023/05/01 09:40:07;;;;;;;11.30;2.13;;;14.80;99.90;;;;;;5050728;28;20462;-69
2023/05/01 09:42:35;;;;;;;3.70;2.37;;;14.80;99.90;;;;;;5044908;28;20499;-69
2023/05/01 09:45:02;;;;;;;6.10;2.80;;;14.90;99.90;;;;;;5031504;28;20571;-69
2023/05/01 09:47:29;;;;;;;3.27;2.23;;;15.10;99.90;;;;;;5034218;28;20445;-69
2023/05/01 09:49:56;;;;;;;5.27;2.30;;;15.10;99.90;;;;;;5041697;28;20417;-69
2023/05/01 09:52:29;;;;;;;3.50;2.20;;;15.10;99.70;;;;;;5047453;28;20765;-69
2023/05/01 09:55:15;;;;;;;3.93;2.33;;;15.20;99.40;;;;;;5031198;28;20424;-69
2023/05/01 09:57:42;;;;;;;5.13;2.60;;;15.30;99.90;;;;;;5038611;28;21026;-69
2023/05/01 10:00:13;;;;;;;3.70;2.03;;;15.20;99.70;;;;;;5025584;28;20469;-69
2023/05/01 10:02:40;;;;;;;5.13;2.57;;;15.20;99.90;;;;;;5033638;28;20484;-69
2023/05/01 10:05:06;;;;;;;4.80;2.60;;;15.30;99.90;;;;;;5045724;28;20473;-69
2023/05/01 10:07:33;;;;;;;3.20;2.13;;;15.50;99.70;;;;;;5051581;28;20444;-69
2023/05/01 10:10:14;;;;;;;11.73;3.07;;;15.60;99.40;;;;;;5050966;28;20424;-69
2023/05/01 10:12:40;;;;;;;7.10;2.23;;;15.60;99.40;;;;;;5038152;28;20482;-69
2023/05/01 10:15:06;;;;;;;4.87;2.67;;;15.60;98.50;;;;;;5038081;28;21191;-69
2023/05/01 10:17:33;;;;;;;7.73;2.70;;;15.40;99.20;;;;;;5041994;28;20866;-69
2023/05/01 10:19:59;;;;;;;4.37;2.80;;;15.40;99.90;;;;;;5046947;28;20508;-69
2023/05/01 10:22:25;;;;;;;4.70;2.30;;;15.40;99.90;;;;;;5041303;28;20882;-70
2023/05/01 10:24:51;;;;;;;8.20;2.33;;;15.60;98.30;;;;;;5046884;28;20187;-68
2023/05/01 10:27:17;;;;;;;4.90;2.20;;;15.40;99.70;;;;;;5030939;28;21071;-68
2023/05/01 10:29:46;;;;;;;5.33;2.67;;;15.40;99.20;;;;;;5048074;28;20193;-69
2023/05/01 10:32:11;;;;;;;4.70;2.80;;;15.50;99.10;;;;;;5039497;28;20910;-68
2023/05/01 10:34:42;;;;;;;4.90;2.00;;;15.40;99.30;;;;;;5032976;28;20423;-68
2023/05/01 10:37:17;;;;;;;3.50;2.00;;;15.50;99.20;;;;;;5031485;28;20225;-68
2023/05/01 10:39:43;;;;;;;3.70;2.87;;;15.50;99.90;;;;;;5037278;28;20466;-68
2023/05/01 10:42:12;;;;;;;5.90;2.70;;;15.50;99.60;;;;;;5025979;28;21084;-68
2023/05/01 10:44:39;;;;;;;4.77;2.60;;;15.40;99.80;;;;;;5037643;28;20249;-68
2023/05/01 10:47:23;;;;;;;7.07;3.80;;;15.20;99.90;;;;;;5028171;28;20428;-68
2023/05/01 10:50:10;;;;;;;5.30;3.00;;;15.10;99.90;;;;;;5025460;28;20512;-68
2023/05/01 10:53:14;;;;;;;7.60;3.83;;;15.00;99.90;;;;;;5033629;28;20440;-69
2023/05/01 10:55:44;;;;;;;6.80;4.03;;;14.80;99.90;;;;;;5036788;28;20415;-69
2023/05/01 10:58:33;;;;;;;7.70;3.10;;;14.70;99.90;;;;;;5043794;28;20428;-69
2023/05/01 11:01:30;;;;;;;5.77;3.10;;;14.60;99.90;;;;;;5026319;28;20429;-69
2023/05/01 11:03:57;;;;;;;6.00;3.67;;;14.70;99.90;;;;;;5022753;28;20461;-69
2023/05/01 11:06:23;;;;;;;4.60;3.10;;;14.70;99.90;;;;;;5027843;28;20480;-69
2023/05/01 11:08:49;;;;;;;7.50;4.10;;;14.60;99.90;;;;;;5039078;28;20904;-69
2023/05/01 11:11:20;;;;;;;6.37;3.93;;;14.70;99.90;;;;;;5031619;28;20213;-69
2023/05/01 11:14:02;;;;;;;8.73;4.13;;;14.70;99.90;;;;;;5035706;28;20186;-69
2023/05/01 11:16:36;;;;;;;8.50;4.03;;;14.60;99.90;;;;;;5031129;28;20455;-69
2023/05/01 11:19:06;;;;;;;3.63;2.60;;;14.50;99.90;;;;;;5042419;28;20435;-69
2023/05/01 11:21:33;;;;;;;7.00;3.47;;;14.50;99.90;;;;;;5036508;28;20420;-69
2023/05/01 11:24:00;;;;;;;6.97;3.50;;;14.30;99.90;;;;;;5050215;28;20491;-69
2023/05/01 11:26:27;;;;;;;6.40;4.07;;;14.00;99.90;;;;;;5028123;28;20445;-68
2023/05/01 11:28:55;;;;;;;6.20;3.40;;;13.90;99.90;;;;;;5030329;28;20811;-68
2023/05/01 11:31:21;;;;;;;17.40;4.40;;;13.80;99.90;;;;;;5036752;28;20914;-69
2023/05/01 11:33:47;;;;;;;6.43;3.53;;;13.80;99.90;;;;;;5029528;28;20429;-69
2023/05/01 11:36:13;;;;;;;5.07;3.20;;;13.80;99.90;;;;;;5029661;28;20178;-69
2023/05/01 11:38:52;;;;;;;6.47;3.93;;;13.90;99.90;;;;;;5032900;28;20209;-69
2023/05/01 11:41:22;;;;;;;5.33;3.30;;;14.00;99.90;;;;;;5029433;28;20448;-69
2023/05/01 11:43:56;;;;;;;6.77;3.40;;;14.10;99.90;;;;;;5027093;28;20521;-69
2023/05/01 11:46:30;;;;;;;5.60;2.63;;;14.30;99.90;;;;;;5028036;28;20424;-69
2023/05/01 11:48:57;;;;;;;4.17;2.43;;;14.50;99.90;;;;;;5034413;28;20833;-69
2023/05/01 11:51:23;;;;;;;5.10;3.30;;;14.90;99.90;;;;;;5035806;28;20409;-69
2023/05/01 11:54:09;;;;;;;5.27;2.43;;;15.50;99.90;;;;;;5044694;28;20424;-69
2023/05/01 11:56:36;;;;;;;5.13;2.40;;;15.80;99.90;;;;;;5027799;28;20420;-69
2023/05/01 11:59:15;;;;;;;4.30;2.37;;;15.90;99.90;;;;;;5028202;28;20433;-69
2023/05/01 12:01:43;;;;;;;4.47;2.50;;;15.90;99.90;;;;;;5025960;28;20979;-69
2023/05/01 12:04:09;;;;;;;4.97;2.40;;;16.10;99.90;;;;;;5028616;28;20415;-69
2023/05/01 12:06:42;;;;;;;4.13;2.03;;;16.20;99.90;;;;;;5047204;28;20895;-69
2023/05/01 12:09:09;;;;;;;3.77;2.63;;;16.30;99.90;;;;;;5053449;28;20424;-69
2023/05/01 12:11:36;;;;;;;5.33;2.57;;;16.30;99.90;;;;;;5037835;28;20913;-69
2023/05/01 12:14:02;;;;;;;4.53;2.53;;;16.30;99.90;;;;;;5030080;28;20452;-69
2023/05/01 12:16:29;;;;;;;4.50;2.37;;;16.20;99.90;;;;;;5037393;28;20958;-69
2023/05/01 12:18:55;;;;;;;5.60;2.73;;;16.10;99.90;;;;;;5036178;28;20440;-69
2023/05/01 12:21:21;;;;;;;5.20;2.60;;;15.90;99.90;;;;;;5029938;28;20432;-69
2023/05/01 12:23:48;;;;;;;2.90;2.30;;;15.90;99.90;;;;;;5037006;28;20599;-69
2023/05/01 12:26:17;;;;;;;3.40;2.40;;;16.10;99.90;;;;;;5048046;28;20775;-69
2023/05/01 12:29:00;;;;;;;5.10;2.90;;;16.30;99.90;;;;;;5053379;28;20427;-69
2023/05/01 12:31:27;;;;;;;4.80;2.50;;;16.30;99.90;;;;;;5053309;28;20424;-69
2023/05/01 12:34:04;;;;;;;3.80;2.23;;;16.30;99.90;;;;;;5032274;28;20428;-69
2023/05/01 12:36:32;;;;;;;4.10;2.20;;;16.30;99.70;;;;;;5036407;28;20511;-69
2023/05/01 12:39:05;;;;;;;3.00;1.50;;;16.40;98.50;;;;;;5046208;28;20420;-69
2023/05/01 12:41:51;;;;;;;3.70;2.63;;;16.20;99.30;;;;;;5038678;28;20429;-69
2023/05/01 12:44:29;;;;;;;3.97;2.33;;;16.00;99.70;;;;;;5035174;28;20894;-69
2023/05/01 12:47:06;;;;;;;5.80;2.83;;;15.80;99.90;;;;;;5032322;28;20409;-69
2023/05/01 12:49:35;;;;;;;5.37;2.70;;;15.70;99.90;;;;;;5026154;28;20426;-69
2023/05/01 12:52:02;;;;;;;4.40;2.57;;;15.50;99.90;;;;;;5039930;28;20413;-69
2023/05/01 12:54:29;;;;;;;3.13;2.20;;;15.40;99.90;;;;;;5037056;28;20512;-69
2023/05/01 12:57:06;;;;;;;4.57;2.10;;;15.00;99.90;;;;;;5046203;28;20416;-69